sensor_id;sensor_type;location;lat;lon;timestamp;temperature;humidity
39079;DHT22;24829;49.208;12.080;2023-11-18T00:02:11;0.80;99.90
39079;DHT22;24829;49.208;12.080;2023-11-18T00:04:36;0.80;99.90
39079;DHT22;24829;49.208;12.080;2023-11-18T00:07:02;0.80;99.90
39079;DHT22;24829;49.208;12.080;2023-11-18T00:09:29;0.80;99.90
39079;DHT22;24829;49.208;12.080;2023-11-18T00:11:54;0.80;99.90
39079;DHT22;24829;49.208;12.080;2023-11-18T00:14:20;0.80;99.90
39079;DHT22;24829;49.208;12.080;2023-11-18T00:16:46;0.90;99.90
39079;DHT22;24829;49.208;12.080;2023-11-18T00:19:12;1.00;99.90
39079;DHT22;24829;49.208;12.080;2023-11-18T00:21:37;1.00;99.90
39079;DHT22;24829;49.208;12.080;2023-11-18T00:24:03;1.00;99.90
39079;DHT22;24829;49.208;12.080;2023-11-18T00:26:30;1.00;99.90
39079;DHT22;24829;49.208;12.080;2023-11-18T00:28:56;1.10;99.90
39079;DHT22;24829;49.208;12.080;2023-11-18T00:31:21;1.10;99.90
39079;DHT22;24829;49.208;12.080;2023-11-18T00:33:47;1.10;99.90
39079;DHT22;24829;49.208;12.080;2023-11-18T00:36:12;1.20;99.90
39079;DHT22;24829;49.208;12.080;2023-11-18T00:38:38;1.20;99.90
39079;DHT22;24829;49.208;12.080;2023-11-18T00:41:04;1.30;99.90
39079;DHT22;24829;49.208;12.080;2023-11-18T00:43:31;1.30;99.90
39079;DHT22;24829;49.208;12.080;2023-11-18T00:45:57;1.30;99.90
39079;DHT22;24829;49.208;12.080;2023-11-18T00:48:24;1.40;99.90
39079;DHT22;24829;49.208;12.080;2023-11-18T00:50:50;1.40;99.90
39079;DHT22;24829;49.208;12.080;2023-11-18T00:53:17;1.40;99.90
39079;DHT22;24829;49.208;12.080;2023-11-18T00:55:42;1.40;99.90
39079;DHT22;24829;49.208;12.080;2023-11-18T00:58:08;1.40;99.90
39079;DHT22;24829;49.208;12.080;2023-11-18T01:00:34;1.30;99.90
39079;DHT22;24829;49.208;12.080;2023-11-18T01:02:59;1.30;99.90
39079;DHT22;24829;49.208;12.080;2023-11-18T01:05:25;1.20;99.90
39079;DHT22;24829;49.208;12.080;2023-11-18T01:07:50;1.20;99.90
39079;DHT22;24829;49.208;12.080;2023-11-18T01:10:16;1.10;99.90
39079;DHT22;24829;49.208;12.080;2023-11-18T01:12:42;1.20;99.90
39079;DHT22;24829;49.208;12.080;2023-11-18T01:15:10;1.10;99.90
39079;DHT22;24829;49.208;12.080;2023-11-18T01:17:38;1.20;99.90
39079;DHT22;24829;49.208;12.080;2023-11-18T01:20:04;1.20;99.90
39079;DHT22;24829;49.208;12.080;2023-11-18T01:22:35;1.20;99.90
39079;DHT22;24829;49.208;12.080;2023-11-18T01:25:01;1.30;99.90
39079;DHT22;24829;49.208;12.080;2023-11-18T01:27:27;1.30;99.90
39079;DHT22;24829;49.208;12.080;2023-11-18T01:29:52;1.30;99.90
39079;DHT22;24829;49.208;12.080;2023-11-18T01:32:18;1.40;99.90
39079;DHT22;24829;49.208;12.080;2023-11-18T01:34:44;1.40;99.90
39079;DHT22;24829;49.208;12.080;2023-11-18T01:37:18;1.40;99.90
39079;DHT22;24829;49.208;12.080;2023-11-18T01:39:45;1.40;99.90
39079;DHT22;24829;49.208;12.080;2023-11-18T01:42:10;1.40;99.90
39079;DHT22;24829;49.208;12.080;2023-11-18T01:44:37;1.40;99.90
39079;DHT22;24829;49.208;12.080;2023-11-18T01:47:03;1.50;99.90
39079;DHT22;24829;49.208;12.080;2023-11-18T01:49:32;1.50;99.90
39079;DHT22;24829;49.208;12.080;2023-11-18T01:51:58;1.50;99.90
39079;DHT22;24829;49.208;12.080;2023-11-18T01:54:25;1.60;99.90
39079;DHT22;24829;49.208;12.080;2023-11-18T01:56:51;1.60;99.90
39079;DHT22;24829;49.208;12.080;2023-11-18T01:59:18;1.60;99.90
39079;DHT22;24829;49.208;12.080;2023-11-18T02:01:48;1.70;99.90
39079;DHT22;24829;49.208;12.080;2023-11-18T02:04:15;1.70;99.90
39079;DHT22;24829;49.208;12.080;2023-11-18T02:06:42;1.70;99.90
39079;DHT22;24829;49.208;12.080;2023-11-18T02:09:07;1.80;99.90
39079;DHT22;24829;49.208;12.080;2023-11-18T02:14:26;1.80;99.90
39079;DHT22;24829;49.208;12.080;2023-11-18T02:16:56;1.80;99.90
39079;DHT22;24829;49.208;12.080;2023-11-18T02:19:25;1.80;99.90
39079;DHT22;24829;49.208;12.080;2023-11-18T02:21:52;1.80;99.90
39079;DHT22;24829;49.208;12.080;2023-11-18T02:24:29;1.80;99.90
39079;DHT22;24829;49.208;12.080;2023-11-18T02:27:06;1.80;99.90
39079;DHT22;24829;49.208;12.080;2023-11-18T02:29:37;1.70;99.90
39079;DHT22;24829;49.208;12.080;2023-11-18T02:32:20;1.80;99.90
39079;DHT22;24829;49.208;12.080;2023-11-18T02:35:12;1.80;99.90
39079;DHT22;24829;49.208;12.080;2023-11-18T02:37:44;1.80;99.90
39079;DHT22;24829;49.208;12.080;2023-11-18T02:40:29;1.80;99.90
39079;DHT22;24829;49.208;12.080;2023-11-18T02:42:59;1.70;99.90
39079;DHT22;24829;49.208;12.080;2023-11-18T02:45:25;1.80;99.90
39079;DHT22;24829;49.208;12.080;2023-11-18T02:47:52;1.70;99.90
39079;DHT22;24829;49.208;12.080;2023-11-18T02:50:23;1.60;99.90
39079;DHT22;24829;49.208;12.080;2023-11-18T02:52:49;1.60;99.90
39079;DHT22;24829;49.208;12.080;2023-11-18T02:55:15;1.50;99.90
39079;DHT22;24829;49.208;12.080;2023-11-18T02:57:40;1.50;99.90
39079;DHT22;24829;49.208;12.080;2023-11-18T03:00:06;1.40;99.90
39079;DHT22;24829;49.208;12.080;2023-11-18T03:02:43;1.30;99.90
39079;DHT22;24829;49.208;12.080;2023-11-18T03:05:09;1.30;99.90
39079;DHT22;24829;49.208;12.080;2023-11-18T03:07:37;1.20;99.90
39079;DHT22;24829;49.208;12.080;2023-11-18T03:10:03;1.10;99.90
39079;DHT22;24829;49.208;12.080;2023-11-18T03:12:35;1.10;99.90
39079;DHT22;24829;49.208;12.080;2023-11-18T03:15:01;1.00;99.90
39079;DHT22;24829;49.208;12.080;2023-11-18T03:17:26;1.00;99.90
39079;DHT22;24829;49.208;12.080;2023-11-18T03:19:52;0.90;99.90
39079;DHT22;24829;49.208;12.080;2023-11-18T03:22:18;1.00;99.90
39079;DHT22;24829;49.208;12.080;2023-11-18T03:24:44;1.00;99.90
39079;DHT22;24829;49.208;12.080;2023-11-18T03:27:10;0.80;99.90
39079;DHT22;24829;49.208;12.080;2023-11-18T03:29:35;0.70;99.90
39079;DHT22;24829;49.208;12.080;2023-11-18T03:32:01;0.50;99.90
39079;DHT22;24829;49.208;12.080;2023-11-18T03:34:27;0.40;99.90
39079;DHT22;24829;49.208;12.080;2023-11-18T03:36:53;0.30;99.90
39079;DHT22;24829;49.208;12.080;2023-11-18T03:39:19;0.20;99.90
39079;DHT22;24829;49.208;12.080;2023-11-18T03:41:44;0.10;99.90
39079;DHT22;24829;49.208;12.080;2023-11-18T03:44:13;0.10;99.90
39079;DHT22;24829;49.208;12.080;2023-11-18T03:46:39;0.00;99.90
39079;DHT22;24829;49.208;12.080;2023-11-18T03:49:04;-0.10;99.90
39079;DHT22;24829;49.208;12.080;2023-11-18T03:51:30;-0.10;99.90
39079;DHT22;24829;49.208;12.080;2023-11-18T03:53:55;-0.20;99.90
39079;DHT22;24829;49.208;12.080;2023-11-18T03:56:21;-0.30;99.90
39079;DHT22;24829;49.208;12.080;2023-11-18T03:58:47;-0.30;99.90
39079;DHT22;24829;49.208;12.080;2023-11-18T04:01:23;-0.20;99.90
39079;DHT22;24829;49.208;12.080;2023-11-18T04:03:49;-0.20;99.90
39079;DHT22;24829;49.208;12.080;2023-11-18T04:06:16;-0.10;99.90
39079;DHT22;24829;49.208;12.080;2023-11-18T04:08:46;-0.10;99.90
39079;DHT22;24829;49.208;12.080;2023-11-18T04:11:12;-0.10;99.90
39079;DHT22;24829;49.208;12.080;2023-11-18T04:13:39;0.00;99.90
39079;DHT22;24829;49.208;12.080;2023-11-18T04:16:06;0.00;99.90
39079;DHT22;24829;49.208;12.080;2023-11-18T04:18:31;0.00;99.90
39079;DHT22;24829;49.208;12.080;2023-11-18T04:20:57;0.00;99.90
39079;DHT22;24829;49.208;12.080;2023-11-18T04:23:23;0.00;99.90
39079;DHT22;24829;49.208;12.080;2023-11-18T04:25:50;0.00;99.90
39079;DHT22;24829;49.208;12.080;2023-11-18T04:28:15;-0.10;99.90
39079;DHT22;24829;49.208;12.080;2023-11-18T04:30:41;-0.10;99.90
39079;DHT22;24829;49.208;12.080;2023-11-18T04:33:06;-0.20;99.90
39079;DHT22;24829;49.208;12.080;2023-11-18T04:35:32;-0.20;99.90
39079;DHT22;24829;49.208;12.080;2023-11-18T04:37:59;-0.30;99.90
39079;DHT22;24829;49.208;12.080;2023-11-18T04:40:25;-0.30;99.90
39079;DHT22;24829;49.208;12.080;2023-11-18T04:42:51;-0.30;99.90
39079;DHT22;24829;49.208;12.080;2023-11-18T04:45:16;-0.30;99.90
39079;DHT22;24829;49.208;12.080;2023-11-18T04:47:42;-0.30;99.90
39079;DHT22;24829;49.208;12.080;2023-11-18T04:50:09;-0.30;99.90
39079;DHT22;24829;49.208;12.080;2023-11-18T04:52:35;-0.30;99.90
39079;DHT22;24829;49.208;12.080;2023-11-18T04:55:02;-0.40;99.90
39079;DHT22;24829;49.208;12.080;2023-11-18T04:57:28;-0.40;99.90
39079;DHT22;24829;49.208;12.080;2023-11-18T04:59:54;-0.30;99.90
39079;DHT22;24829;49.208;12.080;2023-11-18T05:02:20;-0.30;99.90
39079;DHT22;24829;49.208;12.080;2023-11-18T05:04:45;-0.20;99.90
39079;DHT22;24829;49.208;12.080;2023-11-18T05:07:11;-0.20;99.90
39079;DHT22;24829;49.208;12.080;2023-11-18T05:09:36;0.00;99.90
39079;DHT22;24829;49.208;12.080;2023-11-18T05:12:03;0.00;99.90
39079;DHT22;24829;49.208;12.080;2023-11-18T05:14:28;0.00;99.90
39079;DHT22;24829;49.208;12.080;2023-11-18T05:16:54;-0.10;99.90
39079;DHT22;24829;49.208;12.080;2023-11-18T05:19:20;-0.10;99.90
39079;DHT22;24829;49.208;12.080;2023-11-18T05:21:45;0.00;99.90
39079;DHT22;24829;49.208;12.080;2023-11-18T05:24:15;0.00;99.90
39079;DHT22;24829;49.208;12.080;2023-11-18T05:26:40;-0.10;99.90
39079;DHT22;24829;49.208;12.080;2023-11-18T05:29:06;-0.20;99.90
39079;DHT22;24829;49.208;12.080;2023-11-18T05:31:31;-0.30;99.90
39079;DHT22;24829;49.208;12.080;2023-11-18T05:33:58;-0.30;99.90
39079;DHT22;24829;49.208;12.080;2023-11-18T05:36:24;-0.40;99.90
39079;DHT22;24829;49.208;12.080;2023-11-18T05:38:53;-0.50;99.90
39079;DHT22;24829;49.208;12.080;2023-11-18T05:41:20;-0.50;99.90
39079;DHT22;24829;49.208;12.080;2023-11-18T05:43:53;-0.50;99.90
39079;DHT22;24829;49.208;12.080;2023-11-18T05:46:22;-0.40;99.90
39079;DHT22;24829;49.208;12.080;2023-11-18T05:48:50;-0.50;99.90
39079;DHT22;24829;49.208;12.080;2023-11-18T05:51:24;-0.50;99.90
39079;DHT22;24829;49.208;12.080;2023-11-18T05:53:50;-0.50;99.90
39079;DHT22;24829;49.208;12.080;2023-11-18T05:56:17;-0.50;99.90
39079;DHT22;24829;49.208;12.080;2023-11-18T05:58:43;-0.50;99.90
39079;DHT22;24829;49.208;12.080;2023-11-18T06:01:09;-0.50;99.90
39079;DHT22;24829;49.208;12.080;2023-11-18T06:03:36;-0.50;99.90
39079;DHT22;24829;49.208;12.080;2023-11-18T06:06:06;-0.70;99.90
39079;DHT22;24829;49.208;12.080;2023-11-18T06:08:33;-0.80;99.90
39079;DHT22;24829;49.208;12.080;2023-11-18T06:10:59;-0.90;99.90
39079;DHT22;24829;49.208;12.080;2023-11-18T06:13:25;-1.00;99.90
39079;DHT22;24829;49.208;12.080;2023-11-18T06:15:53;-1.10;99.90
39079;DHT22;24829;49.208;12.080;2023-11-18T06:18:18;-1.20;99.90
39079;DHT22;24829;49.208;12.080;2023-11-18T06:20:44;-1.20;99.90
39079;DHT22;24829;49.208;12.080;2023-11-18T06:23:10;-1.20;99.90
39079;DHT22;24829;49.208;12.080;2023-11-18T06:25:35;-1.20;99.90
39079;DHT22;24829;49.208;12.080;2023-11-18T06:28:01;-1.20;99.90
39079;DHT22;24829;49.208;12.080;2023-11-18T06:30:27;-1.20;99.90
39079;DHT22;24829;49.208;12.080;2023-11-18T06:32:53;-1.10;99.90
39079;DHT22;24829;49.208;12.080;2023-11-18T06:35:19;-1.00;99.90
39079;DHT22;24829;49.208;12.080;2023-11-18T06:37:46;-1.00;99.90
39079;DHT22;24829;49.208;12.080;2023-11-18T06:40:13;-1.00;99.90
39079;DHT22;24829;49.208;12.080;2023-11-18T06:42:42;-1.00;99.90
39079;DHT22;24829;49.208;12.080;2023-11-18T06:45:08;-0.90;99.90
39079;DHT22;24829;49.208;12.080;2023-11-18T06:47:38;-0.90;99.90
39079;DHT22;24829;49.208;12.080;2023-11-18T06:50:09;-0.90;99.90
39079;DHT22;24829;49.208;12.080;2023-11-18T06:52:37;-0.90;99.90
39079;DHT22;24829;49.208;12.080;2023-11-18T06:55:04;-0.90;99.90
39079;DHT22;24829;49.208;12.080;2023-11-18T06:57:30;-0.80;99.90
39079;DHT22;24829;49.208;12.080;2023-11-18T06:59:56;-0.70;99.90
39079;DHT22;24829;49.208;12.080;2023-11-18T07:02:22;-0.60;99.90
39079;DHT22;24829;49.208;12.080;2023-11-18T07:04:47;-0.60;99.90
39079;DHT22;24829;49.208;12.080;2023-11-18T07:07:13;-0.50;99.90
39079;DHT22;24829;49.208;12.080;2023-11-18T07:09:39;-0.50;99.90
39079;DHT22;24829;49.208;12.080;2023-11-18T07:12:05;-0.40;99.90
39079;DHT22;24829;49.208;12.080;2023-11-18T07:14:31;-0.40;99.90
39079;DHT22;24829;49.208;12.080;2023-11-18T07:16:56;-0.30;99.90
39079;DHT22;24829;49.208;12.080;2023-11-18T07:19:22;-0.30;99.90
39079;DHT22;24829;49.208;12.080;2023-11-18T07:21:49;-0.30;99.90
39079;DHT22;24829;49.208;12.080;2023-11-18T07:24:15;-0.20;99.90
39079;DHT22;24829;49.208;12.080;2023-11-18T07:26:40;-0.10;99.90
39079;DHT22;24829;49.208;12.080;2023-11-18T07:29:06;-0.10;99.90
39079;DHT22;24829;49.208;12.080;2023-11-18T07:31:34;-0.10;99.90
39079;DHT22;24829;49.208;12.080;2023-11-18T07:34:04;0.00;99.90
39079;DHT22;24829;49.208;12.080;2023-11-18T07:36:34;0.00;99.90
39079;DHT22;24829;49.208;12.080;2023-11-18T07:38:59;0.00;99.90
39079;DHT22;24829;49.208;12.080;2023-11-18T07:41:30;0.00;99.90
39079;DHT22;24829;49.208;12.080;2023-11-18T07:43:56;-0.10;99.90
39079;DHT22;24829;49.208;12.080;2023-11-18T07:46:22;-0.10;99.90
39079;DHT22;24829;49.208;12.080;2023-11-18T07:48:52;-0.20;99.90
39079;DHT22;24829;49.208;12.080;2023-11-18T07:51:21;-0.10;99.90
39079;DHT22;24829;49.208;12.080;2023-11-18T07:53:50;-0.10;99.90
39079;DHT22;24829;49.208;12.080;2023-11-18T07:56:16;0.00;99.90
39079;DHT22;24829;49.208;12.080;2023-11-18T07:58:45;0.10;99.90
39079;DHT22;24829;49.208;12.080;2023-11-18T08:01:17;0.20;99.90
39079;DHT22;24829;49.208;12.080;2023-11-18T08:03:43;0.20;99.90
39079;DHT22;24829;49.208;12.080;2023-11-18T08:06:10;0.30;99.90
39079;DHT22;24829;49.208;12.080;2023-11-18T08:08:37;0.30;99.90
39079;DHT22;24829;49.208;12.080;2023-11-18T08:11:09;0.40;99.90
39079;DHT22;24829;49.208;12.080;2023-11-18T08:13:35;0.40;99.90
39079;DHT22;24829;49.208;12.080;2023-11-18T08:16:01;0.50;99.90
39079;DHT22;24829;49.208;12.080;2023-11-18T08:18:26;0.50;99.90
39079;DHT22;24829;49.208;12.080;2023-11-18T08:20:53;0.60;99.90
39079;DHT22;24829;49.208;12.080;2023-11-18T08:23:18;0.70;99.90
39079;DHT22;24829;49.208;12.080;2023-11-18T08:25:44;0.80;99.90
39079;DHT22;24829;49.208;12.080;2023-11-18T08:28:12;0.90;99.90
39079;DHT22;24829;49.208;12.080;2023-11-18T08:30:39;1.00;99.90
39079;DHT22;24829;49.208;12.080;2023-11-18T08:33:05;1.00;99.90
39079;DHT22;24829;49.208;12.080;2023-11-18T08:35:37;1.10;99.90
39079;DHT22;24829;49.208;12.080;2023-11-18T08:38:02;1.20;99.90
39079;DHT22;24829;49.208;12.080;2023-11-18T08:40:30;1.30;99.90
39079;DHT22;24829;49.208;12.080;2023-11-18T08:42:55;1.30;99.90
39079;DHT22;24829;49.208;12.080;2023-11-18T08:45:26;1.40;99.90
39079;DHT22;24829;49.208;12.080;2023-11-18T08:47:58;1.50;99.90
39079;DHT22;24829;49.208;12.080;2023-11-18T08:50:24;1.50;99.90
39079;DHT22;24829;49.208;12.080;2023-11-18T08:52:51;1.70;99.90
39079;DHT22;24829;49.208;12.080;2023-11-18T08:55:23;1.70;99.90
39079;DHT22;24829;49.208;12.080;2023-11-18T08:58:13;1.90;99.90
39079;DHT22;24829;49.208;12.080;2023-11-18T09:00:49;1.90;99.90
39079;DHT22;24829;49.208;12.080;2023-11-18T09:03:25;2.00;99.90
39079;DHT22;24829;49.208;12.080;2023-11-18T09:05:54;2.00;99.90
39079;DHT22;24829;49.208;12.080;2023-11-18T09:08:33;2.10;99.90
39079;DHT22;24829;49.208;12.080;2023-11-18T09:11:05;2.20;99.90
39079;DHT22;24829;49.208;12.080;2023-11-18T09:13:32;2.30;99.90
39079;DHT22;24829;49.208;12.080;2023-11-18T09:16:01;2.30;99.90
39079;DHT22;24829;49.208;12.080;2023-11-18T09:18:33;2.40;99.90
39079;DHT22;24829;49.208;12.080;2023-11-18T09:21:01;2.40;99.90
39079;DHT22;24829;49.208;12.080;2023-11-18T09:23:27;2.40;99.90
39079;DHT22;24829;49.208;12.080;2023-11-18T09:25:54;2.40;99.90
39079;DHT22;24829;49.208;12.080;2023-11-18T09:28:21;2.50;99.90
39079;DHT22;24829;49.208;12.080;2023-11-18T09:30:48;2.60;99.90
39079;DHT22;24829;49.208;12.080;2023-11-18T09:33:22;2.70;99.90
39079;DHT22;24829;49.208;12.080;2023-11-18T09:35:58;2.80;99.90
39079;DHT22;24829;49.208;12.080;2023-11-18T09:38:31;3.00;99.90
39079;DHT22;24829;49.208;12.080;2023-11-18T09:40:59;3.00;99.90
39079;DHT22;24829;49.208;12.080;2023-11-18T09:43:41;3.10;99.90
39079;DHT22;24829;49.208;12.080;2023-11-18T09:46:13;3.10;99.90
39079;DHT22;24829;49.208;12.080;2023-11-18T09:48:45;2.90;99.90
39079;DHT22;24829;49.208;12.080;2023-11-18T09:51:15;2.80;99.90
39079;DHT22;24829;49.208;12.080;2023-11-18T09:53:45;2.80;99.90
39079;DHT22;24829;49.208;12.080;2023-11-18T09:56:19;2.70;99.90
39079;DHT22;24829;49.208;12.080;2023-11-18T09:59:18;2.70;99.90
39079;DHT22;24829;49.208;12.080;2023-11-18T10:01:52;2.80;99.90
39079;DHT22;24829;49.208;12.080;2023-11-18T10:04:19;2.90;99.90
39079;DHT22;24829;49.208;12.080;2023-11-18T10:06:46;2.90;99.90
39079;DHT22;24829;49.208;12.080;2023-11-18T10:09:13;3.00;99.90
39079;DHT22;24829;49.208;12.080;2023-11-18T10:11:52;3.10;99.90
39079;DHT22;24829;49.208;12.080;2023-11-18T10:14:20;3.20;99.90
39079;DHT22;24829;49.208;12.080;2023-11-18T10:16:46;3.20;99.90
39079;DHT22;24829;49.208;12.080;2023-11-18T10:19:12;3.30;99.90
39079;DHT22;24829;49.208;12.080;2023-11-18T10:21:39;3.40;99.90
39079;DHT22;24829;49.208;12.080;2023-11-18T10:24:09;3.50;99.90
39079;DHT22;24829;49.208;12.080;2023-11-18T10:26:54;3.60;99.90
39079;DHT22;24829;49.208;12.080;2023-11-18T10:29:26;3.60;99.90
39079;DHT22;24829;49.208;12.080;2023-11-18T10:32:07;3.70;99.90
39079;DHT22;24829;49.208;12.080;2023-11-18T10:34:42;3.70;99.90
39079;DHT22;24829;49.208;12.080;2023-11-18T10:37:09;3.80;99.90
39079;DHT22;24829;49.208;12.080;2023-11-18T10:39:36;3.90;99.90
39079;DHT22;24829;49.208;12.080;2023-11-18T10:42:02;3.90;99.90
39079;DHT22;24829;49.208;12.080;2023-11-18T10:44:28;4.00;99.90
39079;DHT22;24829;49.208;12.080;2023-11-18T10:46:55;4.00;99.90
39079;DHT22;24829;49.208;12.080;2023-11-18T10:49:27;4.00;99.90
39079;DHT22;24829;49.208;12.080;2023-11-18T10:51:53;4.10;99.90
39079;DHT22;24829;49.208;12.080;2023-11-18T10:54:20;4.10;99.90
39079;DHT22;24829;49.208;12.080;2023-11-18T10:56:50;4.10;99.90
39079;DHT22;24829;49.208;12.080;2023-11-18T10:59:16;4.10;99.90
39079;DHT22;24829;49.208;12.080;2023-11-18T11:01:42;4.10;99.90
39079;DHT22;24829;49.208;12.080;2023-11-18T11:04:10;4.20;99.90
39079;DHT22;24829;49.208;12.080;2023-11-18T11:06:41;4.20;99.90
39079;DHT22;24829;49.208;12.080;2023-11-18T11:09:10;4.20;99.90
39079;DHT22;24829;49.208;12.080;2023-11-18T11:11:48;4.20;99.90
39079;DHT22;24829;49.208;12.080;2023-11-18T11:14:15;4.30;99.90
39079;DHT22;24829;49.208;12.080;2023-11-18T11:16:50;4.40;99.90
39079;DHT22;24829;49.208;12.080;2023-11-18T11:19:26;4.40;99.90
39079;DHT22;24829;49.208;12.080;2023-11-18T11:22:08;4.40;99.90
39079;DHT22;24829;49.208;12.080;2023-11-18T11:25:00;4.40;99.90
39079;DHT22;24829;49.208;12.080;2023-11-18T11:27:41;4.40;99.90
39079;DHT22;24829;49.208;12.080;2023-11-18T11:30:33;4.50;99.90
39079;DHT22;24829;49.208;12.080;2023-11-18T11:33:29;4.50;99.90
39079;DHT22;24829;49.208;12.080;2023-11-18T11:36:07;4.70;99.90
39079;DHT22;24829;49.208;12.080;2023-11-18T11:38:37;4.80;99.90
39079;DHT22;24829;49.208;12.080;2023-11-18T11:41:07;5.00;99.90
39079;DHT22;24829;49.208;12.080;2023-11-18T11:43:34;5.00;99.90
39079;DHT22;24829;49.208;12.080;2023-11-18T11:46:01;5.00;99.90
39079;DHT22;24829;49.208;12.080;2023-11-18T11:48:35;4.90;99.90
39079;DHT22;24829;49.208;12.080;2023-11-18T11:54:11;4.80;99.90
39079;DHT22;24829;49.208;12.080;2023-11-18T11:56:48;4.80;99.90
39079;DHT22;24829;49.208;12.080;2023-11-18T11:59:27;4.80;99.90
39079;DHT22;24829;49.208;12.080;2023-11-18T12:02:02;4.80;99.90
39079;DHT22;24829;49.208;12.080;2023-11-18T12:04:36;4.80;99.90
39079;DHT22;24829;49.208;12.080;2023-11-18T12:07:04;4.80;99.90
39079;DHT22;24829;49.208;12.080;2023-11-18T12:09:31;4.80;99.90
39079;DHT22;24829;49.208;12.080;2023-11-18T12:12:10;4.80;99.90
39079;DHT22;24829;49.208;12.080;2023-11-18T12:14:51;4.90;99.90
39079;DHT22;24829;49.208;12.080;2023-11-18T12:17:26;4.90;99.90
39079;DHT22;24829;49.208;12.080;2023-11-18T12:19:57;4.90;99.90
39079;DHT22;24829;49.208;12.080;2023-11-18T12:23:04;5.00;99.90
39079;DHT22;24829;49.208;12.080;2023-11-18T12:25:39;5.10;99.90
39079;DHT22;24829;49.208;12.080;2023-11-18T12:28:09;5.30;99.90
39079;DHT22;24829;49.208;12.080;2023-11-18T12:33:04;5.40;99.90
39079;DHT22;24829;49.208;12.080;2023-11-18T12:41:35;5.50;99.90
39079;DHT22;24829;49.208;12.080;2023-11-18T12:46:54;5.50;99.90
39079;DHT22;24829;49.208;12.080;2023-11-18T12:49:21;5.50;99.90
39079;DHT22;24829;49.208;12.080;2023-11-18T12:51:54;5.50;99.90
39079;DHT22;24829;49.208;12.080;2023-11-18T12:54:26;5.50;99.90
39079;DHT22;24829;49.208;12.080;2023-11-18T12:56:55;5.60;99.90
39079;DHT22;24829;49.208;12.080;2023-11-18T12:59:20;5.60;99.90
39079;DHT22;24829;49.208;12.080;2023-11-18T13:01:53;5.60;99.90
39079;DHT22;24829;49.208;12.080;2023-11-18T13:04:28;5.70;99.90
39079;DHT22;24829;49.208;12.080;2023-11-18T13:06:54;5.70;99.90
39079;DHT22;24829;49.208;12.080;2023-11-18T13:09:22;5.70;99.90
39079;DHT22;24829;49.208;12.080;2023-11-18T13:11:54;5.60;99.90
39079;DHT22;24829;49.208;12.080;2023-11-18T13:14:28;5.60;99.90
39079;DHT22;24829;49.208;12.080;2023-11-18T13:16:56;5.50;99.90
39079;DHT22;24829;49.208;12.080;2023-11-18T13:19:28;5.50;99.90
39079;DHT22;24829;49.208;12.080;2023-11-18T13:21:59;5.40;99.90
39079;DHT22;24829;49.208;12.080;2023-11-18T13:24:27;5.40;99.90
39079;DHT22;24829;49.208;12.080;2023-11-18T13:26:55;5.30;99.90
39079;DHT22;24829;49.208;12.080;2023-11-18T13:29:23;5.30;99.90
39079;DHT22;24829;49.208;12.080;2023-11-18T13:31:50;5.30;99.90
39079;DHT22;24829;49.208;12.080;2023-11-18T13:34:20;5.30;99.90
39079;DHT22;24829;49.208;12.080;2023-11-18T13:36:49;5.30;99.90
39079;DHT22;24829;49.208;12.080;2023-11-18T13:39:19;5.30;99.90
39079;DHT22;24829;49.208;12.080;2023-11-18T13:41:48;5.30;99.90
39079;DHT22;24829;49.208;12.080;2023-11-18T13:44:36;5.40;99.90
39079;DHT22;24829;49.208;12.080;2023-11-18T13:47:07;5.40;99.90
39079;DHT22;24829;49.208;12.080;2023-11-18T13:49:40;5.50;99.90
39079;DHT22;24829;49.208;12.080;2023-11-18T13:52:06;5.60;99.90
39079;DHT22;24829;49.208;12.080;2023-11-18T13:54:35;5.70;99.90
39079;DHT22;24829;49.208;12.080;2023-11-18T13:57:02;5.70;99.90
39079;DHT22;24829;49.208;12.080;2023-11-18T13:59:29;5.70;99.90
39079;DHT22;24829;49.208;12.080;2023-11-18T14:01:55;5.70;99.90
39079;DHT22;24829;49.208;12.080;2023-11-18T14:04:28;5.70;99.90
39079;DHT22;24829;49.208;12.080;2023-11-18T14:06:58;5.70;99.90
39079;DHT22;24829;49.208;12.080;2023-11-18T14:09:24;5.70;99.90
39079;DHT22;24829;49.208;12.080;2023-11-18T14:11:55;5.60;99.90
39079;DHT22;24829;49.208;12.080;2023-11-18T14:14:22;5.70;99.90
39079;DHT22;24829;49.208;12.080;2023-11-18T14:16:48;5.70;99.90
39079;DHT22;24829;49.208;12.080;2023-11-18T14:19:15;5.70;99.90
39079;DHT22;24829;49.208;12.080;2023-11-18T14:21:40;5.70;99.90
39079;DHT22;24829;49.208;12.080;2023-11-18T14:24:10;5.60;99.90
39079;DHT22;24829;49.208;12.080;2023-11-18T14:26:37;5.70;99.90
39079;DHT22;24829;49.208;12.080;2023-11-18T14:29:05;5.60;99.90
39079;DHT22;24829;49.208;12.080;2023-11-18T14:31:32;5.60;99.90
39079;DHT22;24829;49.208;12.080;2023-11-18T14:33:57;5.60;99.90
39079;DHT22;24829;49.208;12.080;2023-11-18T14:36:25;5.60;99.90
39079;DHT22;24829;49.208;12.080;2023-11-18T14:38:51;5.60;99.90
39079;DHT22;24829;49.208;12.080;2023-11-18T14:41:17;5.60;99.90
39079;DHT22;24829;49.208;12.080;2023-11-18T14:43:45;5.50;99.90
39079;DHT22;24829;49.208;12.080;2023-11-18T14:46:11;5.50;99.90
39079;DHT22;24829;49.208;12.080;2023-11-18T14:48:36;5.50;99.90
39079;DHT22;24829;49.208;12.080;2023-11-18T14:51:03;5.50;99.90
39079;DHT22;24829;49.208;12.080;2023-11-18T14:53:30;5.40;99.90
39079;DHT22;24829;49.208;12.080;2023-11-18T14:55:56;5.40;99.90
39079;DHT22;24829;49.208;12.080;2023-11-18T14:58:23;5.30;99.90
39079;DHT22;24829;49.208;12.080;2023-11-18T15:00:48;5.20;99.90
39079;DHT22;24829;49.208;12.080;2023-11-18T15:03:14;5.10;99.90
39079;DHT22;24829;49.208;12.080;2023-11-18T15:05:41;5.10;99.90
39079;DHT22;24829;49.208;12.080;2023-11-18T15:08:09;5.00;99.90
39079;DHT22;24829;49.208;12.080;2023-11-18T15:10:35;5.00;99.90
39079;DHT22;24829;49.208;12.080;2023-11-18T15:13:02;5.00;99.90
39079;DHT22;24829;49.208;12.080;2023-11-18T15:15:30;5.00;99.90
39079;DHT22;24829;49.208;12.080;2023-11-18T15:18:04;5.00;99.90
39079;DHT22;24829;49.208;12.080;2023-11-18T15:20:30;4.90;99.90
39079;DHT22;24829;49.208;12.080;2023-11-18T15:22:56;5.00;99.90
39079;DHT22;24829;49.208;12.080;2023-11-18T15:25:22;5.00;99.90
39079;DHT22;24829;49.208;12.080;2023-11-18T15:27:48;5.00;99.90
39079;DHT22;24829;49.208;12.080;2023-11-18T15:30:15;5.00;99.90
39079;DHT22;24829;49.208;12.080;2023-11-18T15:32:43;4.90;99.90
39079;DHT22;24829;49.208;12.080;2023-11-18T15:35:10;4.90;99.90
39079;DHT22;24829;49.208;12.080;2023-11-18T15:37:40;4.90;99.90
39079;DHT22;24829;49.208;12.080;2023-11-18T15:40:12;4.90;99.90
39079;DHT22;24829;49.208;12.080;2023-11-18T15:42:42;4.90;99.90
39079;DHT22;24829;49.208;12.080;2023-11-18T15:45:12;4.80;99.90
39079;DHT22;24829;49.208;12.080;2023-11-18T15:47:38;4.80;99.90
39079;DHT22;24829;49.208;12.080;2023-11-18T15:50:07;4.80;99.90
39079;DHT22;24829;49.208;12.080;2023-11-18T15:52:34;4.80;99.90
39079;DHT22;24829;49.208;12.080;2023-11-18T15:55:01;4.80;99.90